Time,TemperatureF,DewpointF,PressureIn,WindDirection,WindDirectionDegrees,WindSpeedMPH,WindSpeedGustMPH,Humidity,HourlyPrecipIn,Conditions,Clouds,dailyrainin,SoftwareType,DateUTC
2013-04-15 00:03:00,65.4,57.3,29.71,SW,217,3.0,3.0,75,0.04,,,0.01,VWS V14.01,2013-04-15 05:03:00,
2013-04-15 00:08:00,64.6,57.2,29.72,West,266,6.0,10.0,77,0.07,,,0.04,VWS V14.01,2013-04-15 05:08:00,
2013-04-15 00:13:00,63.9,57.6,29.72,West,265,1.0,10.0,80,0.12,,,0.09,VWS V14.01,2013-04-15 05:13:00,
2013-04-15 00:18:00,63.4,57.8,29.72,West,265,0.0,10.0,82,0.22,,,0.19,VWS V14.01,2013-04-15 05:18:00,
2013-04-15 00:23:00,62.8,57.6,29.72,West,265,0.0,10.0,83,0.25,,,0.22,VWS V14.01,2013-04-15 05:23:00,
2013-04-15 00:28:00,62.3,57.7,29.72,West,265,0.0,10.0,85,0.25,,,0.22,VWS V14.01,2013-04-15 05:28:00,
2013-04-15 00:33:00,62.0,57.8,29.72,West,265,0.0,0.0,86,0.25,,,0.22,VWS V14.01,2013-04-15 05:33:00,
2013-04-15 00:38:00,61.8,57.6,29.72,West,265,0.0,0.0,86,0.25,,,0.22,VWS V14.01,2013-04-15 05:38:00,
2013-04-15 00:43:00,61.7,57.8,29.72,West,265,0.0,0.0,87,0.25,,,0.22,VWS V14.01,2013-04-15 05:43:00,
2013-04-15 00:48:00,61.6,57.7,29.72,West,265,0.0,0.0,87,0.25,,,0.22,VWS V14.01,2013-04-15 05:48:00,
2013-04-15 00:53:00,61.5,57.6,29.72,West,265,0.0,0.0,87,0.25,,,0.22,VWS V14.01,2013-04-15 05:53:00,
2013-04-15 00:58:00,61.3,57.7,29.72,West,265,0.0,0.0,88,0.25,,,0.22,VWS V14.01,2013-04-15 05:58:00,
2013-04-15 01:03:00,61.2,57.6,29.72,West,265,0.0,0.0,88,0.22,,,0.22,VWS V14.01,2013-04-15 06:03:00,
2013-04-15 01:08:00,61.1,57.5,29.72,West,265,0.0,0.0,88,0.22,,,0.22,VWS V14.01,2013-04-15 06:08:00,
2013-04-15 01:13:00,61.0,57.4,29.72,West,265,0.0,0.0,88,0.22,,,0.22,VWS V14.01,2013-04-15 06:13:00,
2013-04-15 01:18:00,60.9,57.3,29.72,West,265,2.0,2.0,88,0.22,,,0.22,VWS V14.01,2013-04-15 06:18:00,
2013-04-15 01:23:00,60.8,57.5,29.72,West,265,0.0,3.0,89,0.22,,,0.22,VWS V14.01,2013-04-15 06:23:00,
2013-04-15 01:28:00,60.8,57.5,29.72,West,265,0.0,3.0,89,0.22,,,0.22,VWS V14.01,2013-04-15 06:28:00,
2013-04-15 01:33:00,60.8,57.5,29.72,West,265,0.0,3.0,89,0.04,,,0.26,VWS V14.01,2013-04-15 06:33:00,
2013-04-15 01:38:00,60.7,57.4,29.72,West,265,0.0,3.0,89,0.04,,,0.26,VWS V14.01,2013-04-15 06:38:00,
2013-04-15 01:43:00,60.6,57.3,29.72,West,265,0.0,3.0,89,0.04,,,0.26,VWS V14.01,2013-04-15 06:43:00,
2013-04-15 01:48:00,60.5,57.2,29.72,West,265,0.0,3.0,89,0.04,,,0.26,VWS V14.01,2013-04-15 06:48:00,
2013-04-15 01:53:00,60.4,57.5,29.72,West,265,0.0,3.0,90,0.04,,,0.26,VWS V14.01,2013-04-15 06:53:00,
2013-04-15 01:58:00,60.3,57.4,29.71,West,265,0.0,3.0,90,0.04,,,0.26,VWS V14.01,2013-04-15 06:58:00,
2013-04-15 02:03:00,60.3,57.4,29.72,West,265,0.0,0.0,90,0.04,,,0.26,VWS V14.01,2013-04-15 07:03:00,
2013-04-15 02:45:00,60.1,57.2,29.72,West,275,4.0,5.0,90,0.02,,,0.26,VWS V14.01,2013-04-15 07:45:00,
2013-04-15 02:50:00,60.1,57.2,29.72,West,275,0.0,5.0,90,0.02,,,0.26,VWS V14.01,2013-04-15 07:50:00,
2013-04-15 02:55:00,60.2,57.3,29.73,West,275,0.0,5.0,90,0.02,,,0.26,VWS V14.01,2013-04-15 07:55:00,
2013-04-15 03:00:00,60.2,57.0,29.72,West,275,0.0,5.0,89,0.02,,,0.26,VWS V14.01,2013-04-15 08:00:00,
2013-04-15 03:05:00,60.2,57.0,29.72,West,275,0.0,0.0,89,0.01,,,0.27,VWS V14.01,2013-04-15 08:05:00,
2013-04-15 03:10:00,60.1,56.8,29.72,West,275,0.0,1.0,89,0.01,,,0.27,VWS V14.01,2013-04-15 08:10:00,
2013-04-15 03:15:00,60.1,56.8,29.72,West,275,0.0,1.0,89,0.01,,,0.27,VWS V14.01,2013-04-15 08:15:00,
2013-04-15 03:25:00,59.9,56.7,29.73,West,275,0.0,4.0,89,0.01,,,0.27,VWS V14.01,2013-04-15 08:25:00,
2013-04-15 03:35:00,59.8,56.9,29.73,West,275,1.0,1.0,90,0.01,,,0.27,VWS V14.01,2013-04-15 08:35:00,
2013-04-15 03:40:00,59.6,56.7,29.74,West,275,0.0,2.0,90,0.01,,,0.27,VWS V14.01,2013-04-15 08:40:00,
2013-04-15 03:45:00,59.5,56.6,29.74,West,275,0.0,2.0,90,0.01,,,0.27,VWS V14.01,2013-04-15 08:45:00,
2013-04-15 03:50:00,59.5,56.6,29.75,West,275,0.0,4.0,90,0.01,,,0.27,VWS V14.01,2013-04-15 08:50:00,
2013-04-15 03:55:00,59.4,56.5,29.74,West,275,0.0,4.0,90,0.01,,,0.27,VWS V14.01,2013-04-15 08:55:00,
2013-04-15 04:00:00,59.3,56.4,29.74,West,275,0.0,0.0,90,0.00,,,0.27,VWS V14.01,2013-04-15 09:00:00,
2013-04-15 04:05:00,59.3,56.4,29.74,West,275,0.0,1.0,90,0.00,,,0.27,VWS V14.01,2013-04-15 09:05:00,
2013-04-15 04:10:00,59.2,56.3,29.75,West,275,0.0,2.0,90,0.00,,,0.27,VWS V14.01,2013-04-15 09:10:00,
2013-04-15 04:15:00,59.2,56.3,29.74,West,275,0.0,2.0,90,0.00,,,0.27,VWS V14.01,2013-04-15 09:15:00,
2013-04-15 04:20:00,59.2,56.3,29.75,West,275,0.0,2.0,90,0.00,,,0.27,VWS V14.01,2013-04-15 09:20:00,
2013-04-15 04:25:00,59.2,56.0,29.75,West,275,0.0,2.0,89,0.00,,,0.27,VWS V14.01,2013-04-15 09:25:00,
2013-04-15 04:30:00,59.2,56.0,29.75,West,275,0.0,0.0,89,0.00,,,0.27,VWS V14.01,2013-04-15 09:30:00,
2013-04-15 04:35:00,59.2,56.0,29.76,West,275,2.0,5.0,89,0.00,,,0.27,VWS V14.01,2013-04-15 09:35:00,
2013-04-15 04:40:00,59.1,55.9,29.77,West,275,2.0,5.0,89,0.00,,,0.27,VWS V14.01,2013-04-15 09:40:00,
2013-04-15 04:45:00,59.1,55.9,29.76,West,275,0.0,5.0,89,0.00,,,0.27,VWS V14.01,2013-04-15 09:45:00,
2013-04-15 04:50:00,59.1,55.9,29.77,West,275,2.0,5.0,89,0.00,,,0.27,VWS V14.01,2013-04-15 09:50:00,
2013-04-15 04:55:00,59.0,55.5,29.77,West,275,0.0,5.0,88,0.00,,,0.27,VWS V14.01,2013-04-15 09:55:00,
2013-04-15 05:00:00,59.0,55.5,29.77,West,275,4.0,4.0,88,0.00,,,0.27,VWS V14.01,2013-04-15 10:00:00,
2013-04-15 05:05:00,59.0,55.1,29.76,West,275,0.0,4.0,87,0.00,,,0.27,VWS V14.01,2013-04-15 10:05:00,
2013-04-15 05:10:00,59.0,55.1,29.77,West,275,2.0,4.0,87,0.00,,,0.27,VWS V14.01,2013-04-15 10:10:00,
2013-04-15 05:15:00,58.9,55.0,29.77,West,275,0.0,4.0,87,0.00,,,0.27,VWS V14.01,2013-04-15 10:15:00,
2013-04-15 05:20:00,58.9,54.7,29.76,West,275,0.0,4.0,86,0.00,,,0.27,VWS V14.01,2013-04-15 10:20:00,
2013-04-15 05:25:00,58.8,54.6,29.76,West,275,0.0,4.0,86,0.00,,,0.27,VWS V14.01,2013-04-15 10:25:00,
2013-04-15 05:30:00,58.8,55.0,29.77,West,275,0.0,0.0,87,0.00,,,0.27,VWS V14.01,2013-04-15 10:30:00,
2013-04-15 05:35:00,58.7,54.8,29.77,West,275,0.0,0.0,87,0.00,,,0.27,VWS V14.01,2013-04-15 10:35:00,
2013-04-15 05:40:00,58.5,54.7,29.77,West,275,0.0,0.0,87,0.00,,,0.27,VWS V14.01,2013-04-15 10:40:00,
2013-04-15 05:45:00,58.3,54.8,29.78,West,275,0.0,0.0,88,0.00,,,0.27,VWS V14.01,2013-04-15 10:45:00,
2013-04-15 05:51:00,58.1,54.9,29.78,West,275,0.0,2.0,89,0.00,,,0.27,VWS V14.01,2013-04-15 10:51:00,
2013-04-15 05:56:00,57.9,54.7,29.79,West,275,2.0,4.0,89,0.00,,,0.27,VWS V14.01,2013-04-15 10:56:00,
2013-04-15 06:01:00,57.7,54.5,29.80,West,275,2.0,2.0,89,0.00,,,0.27,VWS V14.01,2013-04-15 11:01:00,
2013-04-15 06:06:00,57.5,54.3,29.80,West,275,0.0,2.0,89,0.00,,,0.27,VWS V14.01,2013-04-15 11:06:00,
2013-04-15 06:11:00,57.4,54.2,29.80,West,275,1.0,4.0,89,0.00,,,0.27,VWS V14.01,2013-04-15 11:11:00,
2013-04-15 06:16:00,57.4,53.9,29.79,West,275,0.0,4.0,88,0.00,,,0.27,VWS V14.01,2013-04-15 11:16:00,
2013-04-15 06:21:00,57.4,54.2,29.79,West,275,0.0,4.0,89,0.00,,,0.27,VWS V14.01,2013-04-15 11:21:00,
2013-04-15 06:26:00,57.4,54.2,29.79,West,275,0.0,4.0,89,0.00,,,0.27,VWS V14.01,2013-04-15 11:26:00,
2013-04-15 06:31:00,57.2,53.7,29.81,West,275,2.0,4.0,88,0.00,,,0.27,VWS V14.01,2013-04-15 11:31:00,
2013-04-15 06:41:00,57.0,53.5,29.81,West,275,0.0,5.0,88,0.00,,,0.27,VWS V14.01,2013-04-15 11:41:00,
2013-04-15 06:46:00,57.1,53.6,29.81,West,275,0.0,5.0,88,0.00,,,0.27,VWS V14.01,2013-04-15 11:46:00,
2013-04-15 06:51:00,57.0,53.2,29.81,West,275,0.0,5.0,87,0.00,,,0.27,VWS V14.01,2013-04-15 11:51:00,
2013-04-15 06:56:00,57.0,53.2,29.81,West,275,2.0,5.0,87,0.00,,,0.27,VWS V14.01,2013-04-15 11:56:00,
2013-04-15 07:01:00,56.9,53.1,29.81,West,275,0.0,0.0,87,0.00,,,0.27,VWS V14.01,2013-04-15 12:01:00,
2013-04-15 07:11:00,56.8,53.0,29.81,West,275,2.0,2.0,87,0.00,,,0.27,VWS V14.01,2013-04-15 12:11:00,
2013-04-15 07:16:00,56.7,52.9,29.81,West,275,1.0,2.0,87,0.01,,,0.28,VWS V14.01,2013-04-15 12:16:00,
2013-04-15 07:22:00,56.5,53.0,29.81,West,275,0.0,2.0,88,0.01,,,0.28,VWS V14.01,2013-04-15 12:22:00,
2013-04-15 07:27:00,56.3,52.8,29.81,West,275,0.0,2.0,88,0.01,,,0.28,VWS V14.01,2013-04-15 12:27:00,
2013-04-15 07:32:00,56.2,53.0,29.82,West,275,4.0,4.0,89,0.01,,,0.28,VWS V14.01,2013-04-15 12:32:00,
2013-04-15 07:37:00,56.0,52.8,29.84,West,275,2.0,4.0,89,0.01,,,0.28,VWS V14.01,2013-04-15 12:37:00,
2013-04-15 07:42:00,55.9,52.1,29.85,West,275,1.0,5.0,87,0.01,,,0.28,VWS V14.01,2013-04-15 12:42:00,
2013-04-15 07:47:00,55.9,50.5,29.85,West,266,2.0,6.0,82,0.01,,,0.28,VWS V14.01,2013-04-15 12:47:00,
2013-04-15 07:52:00,56.1,50.7,29.86,West,266,3.0,6.0,82,0.01,,,0.28,VWS V14.01,2013-04-15 12:52:00,
2013-04-15 07:57:00,56.1,50.4,29.85,West,278,0.0,6.0,81,0.02,,,0.29,VWS V14.01,2013-04-15 12:57:00,
2013-04-15 08:02:00,56.0,50.6,29.84,West,278,0.0,0.0,82,0.02,,,0.29,VWS V14.01,2013-04-15 13:02:00,
2013-04-15 08:07:00,55.9,50.5,29.84,West,278,0.0,4.0,82,0.02,,,0.29,VWS V14.01,2013-04-15 13:07:00,
2013-04-15 08:12:00,55.9,51.1,29.83,West,279,0.0,4.0,84,0.02,,,0.29,VWS V14.01,2013-04-15 13:12:00,
2013-04-15 08:17:00,55.8,51.0,29.84,West,279,2.0,4.0,84,0.02,,,0.29,VWS V14.01,2013-04-15 13:17:00,
2013-04-15 08:22:00,55.6,51.2,29.84,West,278,1.0,4.0,85,0.02,,,0.29,VWS V14.01,2013-04-15 13:22:00,
2013-04-15 08:27:00,55.3,50.9,29.85,West,278,2.0,4.0,85,0.02,,,0.29,VWS V14.01,2013-04-15 13:27:00,
2013-04-15 08:32:00,55.3,50.9,29.84,West,278,0.0,0.0,85,0.01,,,0.29,VWS V14.01,2013-04-15 13:32:00,
2013-04-15 08:37:00,55.2,50.8,29.83,West,278,0.0,0.0,85,0.01,,,0.29,VWS V14.01,2013-04-15 13:37:00,
2013-04-15 08:42:00,55.2,51.1,29.83,West,278,0.0,0.0,86,0.01,,,0.29,VWS V14.01,2013-04-15 13:42:00,
2013-04-15 08:47:00,55.3,51.2,29.84,West,278,2.0,4.0,86,0.01,,,0.29,VWS V14.01,2013-04-15 13:47:00,
2013-04-15 08:52:00,55.3,50.9,29.84,West,278,0.0,5.0,85,0.01,,,0.29,VWS V14.01,2013-04-15 13:52:00,
2013-04-15 08:57:00,55.4,51.0,29.84,West,278,1.0,5.0,85,0.01,,,0.29,VWS V14.01,2013-04-15 13:57:00,
2013-04-15 09:07:00,55.3,50.6,29.82,West,278,0.0,5.0,84,0.00,,,0.29,VWS V14.01,2013-04-15 14:07:00,
2013-04-15 09:12:00,55.4,51.3,29.82,West,278,0.0,5.0,86,0.00,,,0.29,VWS V14.01,2013-04-15 14:12:00,
2013-04-15 09:17:00,55.5,51.4,29.82,West,278,0.0,5.0,86,0.00,,,0.29,VWS V14.01,2013-04-15 14:17:00,
2013-04-15 09:23:00,55.6,51.2,29.83,West,278,0.0,5.0,85,0.00,,,0.29,VWS V14.01,2013-04-15 14:23:00,
2013-04-15 09:28:00,55.8,51.4,29.82,West,278,0.0,5.0,85,0.00,,,0.29,VWS V14.01,2013-04-15 14:28:00,
2013-04-15 09:33:00,55.9,51.8,29.82,West,278,0.0,0.0,86,0.00,,,0.29,VWS V14.01,2013-04-15 14:33:00,
2013-04-15 09:38:00,56.0,51.6,29.81,West,278,0.0,2.0,85,0.00,,,0.29,VWS V14.01,2013-04-15 14:38:00,
2013-04-15 09:43:00,56.0,51.2,29.80,West,278,1.0,2.0,84,0.00,,,0.29,VWS V14.01,2013-04-15 14:43:00,
2013-04-15 09:48:00,56.2,51.4,29.80,West,278,0.0,2.0,84,0.00,,,0.29,VWS V14.01,2013-04-15 14:48:00,
2013-04-15 09:53:00,56.4,51.6,29.80,West,278,2.0,4.0,84,0.00,,,0.29,VWS V14.01,2013-04-15 14:53:00,
2013-04-15 09:58:00,56.7,51.6,29.81,West,271,0.0,4.0,83,0.00,,,0.29,VWS V14.01,2013-04-15 14:58:00,
2013-04-15 10:03:00,56.8,51.4,29.82,West,271,1.0,2.0,82,0.00,,,0.29,VWS V14.01,2013-04-15 15:03:00,
2013-04-15 10:08:00,56.9,50.5,29.82,West,271,4.0,4.0,79,0.00,,,0.29,VWS V14.01,2013-04-15 15:08:00,
2013-04-15 10:13:00,56.9,49.8,29.82,West,271,0.0,5.0,77,0.00,,,0.29,VWS V14.01,2013-04-15 15:13:00,
2013-04-15 10:18:00,56.9,50.1,29.82,West,271,0.0,5.0,78,0.00,,,0.29,VWS V14.01,2013-04-15 15:18:00,
2013-04-15 10:23:00,57.0,49.9,29.82,West,271,0.0,5.0,77,0.00,,,0.29,VWS V14.01,2013-04-15 15:23:00,
2013-04-15 10:28:00,57.2,50.1,29.82,West,271,1.0,5.0,77,0.00,,,0.29,VWS V14.01,2013-04-15 15:28:00,
2013-04-15 10:33:00,57.3,49.8,29.82,West,271,2.0,4.0,76,0.00,,,0.29,VWS V14.01,2013-04-15 15:33:00,
2013-04-15 10:38:00,57.5,49.3,29.82,WSW,248,0.0,4.0,74,0.00,,,0.29,VWS V14.01,2013-04-15 15:38:00,
2013-04-15 10:43:00,57.7,49.5,29.83,WSW,248,0.0,4.0,74,0.00,,,0.29,VWS V14.01,2013-04-15 15:43:00,
2013-04-15 10:48:00,57.8,48.8,29.84,WSW,248,0.0,4.0,72,0.00,,,0.29,VWS V14.01,2013-04-15 15:48:00,
2013-04-15 10:53:00,57.8,47.7,29.83,WSW,249,2.0,4.0,69,0.00,,,0.29,VWS V14.01,2013-04-15 15:53:00,
2013-04-15 10:58:00,58.0,49.0,29.83,WSW,249,0.0,4.0,72,0.00,,,0.29,VWS V14.01,2013-04-15 15:58:00,
2013-04-15 11:03:00,58.2,48.5,29.83,WSW,249,0.0,0.0,70,0.00,,,0.29,VWS V14.01,2013-04-15 16:03:00,
2013-04-15 11:08:00,58.4,47.9,29.83,WSW,249,0.0,2.0,68,0.00,,,0.29,VWS V14.01,2013-04-15 16:08:00,
2013-04-15 11:13:00,58.5,48.8,29.84,WSW,249,0.0,2.0,70,0.00,,,0.29,VWS V14.01,2013-04-15 16:13:00,
2013-04-15 11:18:00,58.5,48.8,29.84,WSW,249,0.0,3.0,70,0.00,,,0.29,VWS V14.01,2013-04-15 16:18:00,
2013-04-15 11:23:00,58.5,49.1,29.84,WSW,249,0.0,3.0,71,0.00,,,0.29,VWS V14.01,2013-04-15 16:23:00,
2013-04-15 11:28:00,58.4,49.8,29.83,WSW,249,0.0,3.0,73,0.00,,,0.29,VWS V14.01,2013-04-15 16:28:00,
2013-04-15 11:33:00,58.4,49.4,29.84,WSW,249,0.0,0.0,72,0.00,,,0.29,VWS V14.01,2013-04-15 16:33:00,
2013-04-15 11:38:00,58.4,48.7,29.84,WSW,249,0.0,0.0,70,0.00,,,0.29,VWS V14.01,2013-04-15 16:38:00,
2013-04-15 11:43:00,58.3,48.6,29.85,WSW,249,3.0,3.0,70,0.00,,,0.29,VWS V14.01,2013-04-15 16:43:00,
2013-04-15 11:48:00,58.2,49.2,29.85,WSW,249,0.0,3.0,72,0.01,,,0.30,VWS V14.01,2013-04-15 16:48:00,
2013-04-15 11:53:00,58.0,50.8,29.84,WSW,249,0.0,3.0,77,0.01,,,0.30,VWS V14.01,2013-04-15 16:53:00,
2013-04-15 11:58:00,57.7,50.9,29.84,WSW,249,0.0,3.0,78,0.01,,,0.30,VWS V14.01,2013-04-15 16:58:00,
2013-04-15 12:03:00,57.4,51.0,29.83,WSW,249,0.0,0.0,79,0.01,,,0.30,VWS V14.01,2013-04-15 17:03:00,
2013-04-15 12:08:00,57.3,51.5,29.84,WSW,249,0.0,2.0,81,0.01,,,0.30,VWS V14.01,2013-04-15 17:08:00,
2013-04-15 12:19:00,57.2,51.8,29.84,WSW,249,0.0,2.0,82,0.01,,,0.30,VWS V14.01,2013-04-15 17:19:00,
2013-04-15 12:24:00,57.1,51.0,29.85,WSW,250,0.0,3.0,80,0.01,,,0.30,VWS V14.01,2013-04-15 17:24:00,
2013-04-15 12:29:00,57.0,51.6,29.85,WSW,252,0.0,3.0,82,0.01,,,0.30,VWS V14.01,2013-04-15 17:29:00,
2013-04-15 12:30:00,57.0,51.6,29.86,WSW,252,0.0,3.0,82,0.01,,,0.30,VWS V14.01,2013-04-15 17:30:00,
2013-04-15 12:39:00,57.1,52.0,29.85,WSW,254,0.0,2.0,83,0.01,,,0.30,VWS V14.01,2013-04-15 17:39:00,
2013-04-15 12:44:00,57.1,52.0,29.86,WSW,249,0.0,3.0,83,0.01,,,0.30,VWS V14.01,2013-04-15 17:44:00,
2013-04-15 12:49:00,57.0,51.9,29.86,WSW,249,2.0,3.0,83,0.01,,,0.30,VWS V14.01,2013-04-15 17:49:00,
2013-04-15 12:54:00,57.0,51.9,29.86,WSW,249,0.0,3.0,83,0.01,,,0.30,VWS V14.01,2013-04-15 17:54:00,
2013-04-15 12:59:00,57.0,51.9,29.86,WSW,249,0.0,3.0,83,0.01,,,0.30,VWS V14.01,2013-04-15 17:59:00,
2013-04-15 13:04:00,57.0,51.9,29.86,WSW,249,0.0,2.0,83,0.00,,,0.30,VWS V14.01,2013-04-15 18:04:00,
2013-04-15 13:09:00,56.9,52.1,29.86,WSW,249,0.0,2.0,84,0.00,,,0.30,VWS V14.01,2013-04-15 18:09:00,
2013-04-15 13:14:00,56.9,51.8,29.86,WSW,249,2.0,3.0,83,0.00,,,0.30,VWS V14.01,2013-04-15 18:14:00,
2013-04-15 13:19:00,56.9,51.8,29.85,WSW,249,0.0,3.0,83,0.00,,,0.30,VWS V14.01,2013-04-15 18:19:00,
2013-04-15 13:24:00,56.8,51.7,29.85,WSW,249,0.0,3.0,83,0.00,,,0.30,VWS V14.01,2013-04-15 18:24:00,
2013-04-15 13:29:00,56.8,51.7,29.85,WSW,249,0.0,3.0,83,0.00,,,0.30,VWS V14.01,2013-04-15 18:29:00,
2013-04-15 13:30:00,56.8,51.7,29.85,WSW,249,0.0,3.0,83,0.00,,,0.30,VWS V14.01,2013-04-15 18:30:00,
2013-04-15 13:39:00,56.8,52.0,29.85,WSW,249,0.0,0.0,84,0.00,,,0.30,VWS V14.01,2013-04-15 18:39:00,
2013-04-15 13:44:00,56.7,51.9,29.85,WSW,249,0.0,2.0,84,0.01,,,0.31,VWS V14.01,2013-04-15 18:44:00,
2013-04-15 13:49:00,56.6,51.8,29.85,WSW,249,1.0,2.0,84,0.01,,,0.31,VWS V14.01,2013-04-15 18:49:00,
2013-04-15 13:54:00,56.5,51.7,29.85,WSW,249,0.0,2.0,84,0.01,,,0.31,VWS V14.01,2013-04-15 18:54:00,
2013-04-15 13:59:00,56.3,51.5,29.85,WSW,249,0.0,2.0,84,0.01,,,0.31,VWS V14.01,2013-04-15 18:59:00,
2013-04-15 14:04:00,56.3,51.9,29.84,WSW,249,0.0,0.0,85,0.01,,,0.31,VWS V14.01,2013-04-15 19:04:00,
2013-04-15 14:09:00,56.1,51.3,29.84,WSW,252,2.0,3.0,84,0.01,,,0.31,VWS V14.01,2013-04-15 19:09:00,
2013-04-15 14:14:00,55.9,50.8,29.84,WSW,256,0.0,3.0,83,0.01,,,0.31,VWS V14.01,2013-04-15 19:14:00,
2013-04-15 14:19:00,55.8,51.0,29.83,WSW,256,2.0,3.0,84,0.01,,,0.31,VWS V14.01,2013-04-15 19:19:00,
2013-04-15 14:24:00,55.7,50.6,29.83,WSW,254,0.0,3.0,83,0.01,,,0.31,VWS V14.01,2013-04-15 19:24:00,
2013-04-15 14:29:00,55.7,50.6,29.85,WSW,254,1.0,3.0,83,0.01,,,0.31,VWS V14.01,2013-04-15 19:29:00,
2013-04-15 14:39:00,55.7,50.6,29.84,WSW,254,0.0,2.0,83,0.01,,,0.31,VWS V14.01,2013-04-15 19:39:00,
2013-04-15 14:49:00,55.6,50.5,29.84,SSE,163,0.0,4.0,83,0.01,,,0.31,VWS V14.01,2013-04-15 19:49:00,
2013-04-15 14:54:00,55.5,50.4,29.84,SSE,163,0.0,4.0,83,0.01,,,0.31,VWS V14.01,2013-04-15 19:54:00,
2013-04-15 14:59:00,55.5,50.4,29.84,SSE,163,1.0,4.0,83,0.01,,,0.31,VWS V14.01,2013-04-15 19:59:00,
2013-04-15 15:00:00,55.5,50.4,29.84,SSE,163,0.0,4.0,83,0.01,,,0.31,VWS V14.01,2013-04-15 20:00:00,
2013-04-15 15:04:00,55.4,50.7,29.84,SSW,192,2.0,3.0,84,0.01,,,0.32,VWS V14.01,2013-04-15 20:04:00,
2013-04-15 15:09:00,55.3,50.6,29.84,WNW,298,7.0,7.0,84,0.01,,,0.32,VWS V14.01,2013-04-15 20:09:00,
2013-04-15 15:14:00,55.1,50.7,29.84,NW,306,4.0,7.0,85,0.01,,,0.32,VWS V14.01,2013-04-15 20:14:00,
2013-04-15 15:19:00,55.0,50.6,29.84,NW,309,0.0,7.0,85,0.02,,,0.33,VWS V14.01,2013-04-15 20:19:00,
2013-04-15 15:24:00,54.8,50.4,29.84,NW,309,0.0,7.0,85,0.02,,,0.33,VWS V14.01,2013-04-15 20:24:00,
2013-04-15 15:29:00,54.6,50.5,29.84,NW,309,4.0,7.0,86,0.02,,,0.33,VWS V14.01,2013-04-15 20:29:00,
2013-04-15 15:34:00,54.5,50.7,29.84,NW,309,0.0,4.0,87,0.03,,,0.34,VWS V14.01,2013-04-15 20:34:00,
2013-04-15 15:39:00,54.5,50.7,29.84,WNW,290,7.0,7.0,87,0.03,,,0.34,VWS V14.01,2013-04-15 20:39:00,
2013-04-15 15:44:00,54.2,50.4,29.85,West,281,0.0,8.0,87,0.03,,,0.34,VWS V14.01,2013-04-15 20:44:00,
2013-04-15 15:49:00,53.9,50.1,29.85,East,100,4.0,8.0,87,0.03,,,0.34,VWS V14.01,2013-04-15 20:49:00,
2013-04-15 15:54:00,53.7,49.9,29.85,ESE,111,0.0,8.0,87,0.04,,,0.35,VWS V14.01,2013-04-15 20:54:00,
2013-04-15 15:59:00,53.6,50.1,29.85,ESE,120,1.0,8.0,88,0.04,,,0.35,VWS V14.01,2013-04-15 20:59:00,
2013-04-15 16:05:00,53.5,50.0,29.85,ESE,121,0.0,2.0,88,0.04,,,0.35,VWS V14.01,2013-04-15 21:05:00,
2013-04-15 16:10:00,53.2,49.7,29.85,South,178,0.0,4.0,88,0.05,,,0.36,VWS V14.01,2013-04-15 21:10:00,
2013-04-15 16:15:00,53.2,49.7,29.85,SE,126,1.0,5.0,88,0.05,,,0.36,VWS V14.01,2013-04-15 21:15:00,
2013-04-15 16:20:00,52.9,49.5,29.85,SE,144,0.0,6.0,88,0.05,,,0.36,VWS V14.01,2013-04-15 21:20:00,
2013-04-15 16:25:00,52.8,49.7,29.85,West,279,4.0,6.0,89,0.05,,,0.36,VWS V14.01,2013-04-15 21:25:00,
2013-04-15 16:30:00,52.6,49.2,29.85,WNW,286,0.0,6.0,88,0.05,,,0.36,VWS V14.01,2013-04-15 21:30:00,
2013-04-15 16:35:00,52.5,49.4,29.85,WNW,285,2.0,4.0,89,0.02,,,0.36,VWS V14.01,2013-04-15 21:35:00,
2013-04-15 16:40:00,52.4,49.3,29.85,WNW,285,0.0,4.0,89,0.02,,,0.36,VWS V14.01,2013-04-15 21:40:00,
2013-04-15 16:45:00,52.4,49.3,29.85,SE,128,1.0,4.0,89,0.03,,,0.37,VWS V14.01,2013-04-15 21:45:00,
2013-04-15 16:50:00,52.4,49.3,29.85,ESE,121,0.0,4.0,89,0.03,,,0.37,VWS V14.01,2013-04-15 21:50:00,
2013-04-15 16:55:00,52.4,49.6,29.85,SE,124,4.0,6.0,90,0.03,,,0.37,VWS V14.01,2013-04-15 21:55:00,
2013-04-15 17:00:00,52.3,49.5,29.85,SE,126,2.0,6.0,90,0.03,,,0.37,VWS V14.01,2013-04-15 22:00:00,
2013-04-15 17:05:00,52.3,49.5,29.85,East,96,0.0,5.0,90,0.02,,,0.37,VWS V14.01,2013-04-15 22:05:00,
2013-04-15 17:10:00,52.1,49.0,29.85,East,95,2.0,5.0,89,0.02,,,0.37,VWS V14.01,2013-04-15 22:10:00,
2013-04-15 17:15:00,52.0,48.9,29.85,NE,45,1.0,5.0,89,0.02,,,0.37,VWS V14.01,2013-04-15 22:15:00,
2013-04-15 17:20:00,51.9,49.1,29.85,NE,44,0.0,5.0,90,0.02,,,0.37,VWS V14.01,2013-04-15 22:20:00,
2013-04-15 17:25:00,51.9,49.1,29.85,NE,53,0.0,5.0,90,0.02,,,0.37,VWS V14.01,2013-04-15 22:25:00,
2013-04-15 17:30:00,51.9,49.1,29.85,NE,51,2.0,5.0,90,0.02,,,0.37,VWS V14.01,2013-04-15 22:30:00,
2013-04-15 17:35:00,51.9,49.1,29.85,East,88,2.0,3.0,90,0.01,,,0.37,VWS V14.01,2013-04-15 22:35:00,
2013-04-15 17:40:00,51.8,49.0,29.85,East,84,0.0,3.0,90,0.01,,,0.37,VWS V14.01,2013-04-15 22:40:00,
2013-04-15 17:45:00,51.7,48.9,29.86,East,86,0.0,4.0,90,0.01,,,0.37,VWS V14.01,2013-04-15 22:45:00,
2013-04-15 17:50:00,51.8,49.0,29.86,East,86,1.0,4.0,90,0.01,,,0.37,VWS V14.01,2013-04-15 22:50:00,
2013-04-15 17:55:00,51.7,48.9,29.86,ENE,60,0.0,5.0,90,0.01,,,0.37,VWS V14.01,2013-04-15 22:55:00,
2013-04-15 18:00:00,51.7,48.9,29.86,East,84,2.0,5.0,90,0.01,,,0.37,VWS V14.01,2013-04-15 23:00:00,
2013-04-15 18:05:00,51.7,48.9,29.86,East,82,2.0,3.0,90,0.00,,,0.37,VWS V14.01,2013-04-15 23:05:00,
2013-04-15 18:10:00,51.6,48.8,29.86,East,82,2.0,3.0,90,0.00,,,0.37,VWS V14.01,2013-04-15 23:10:00,
2013-04-15 18:15:00,51.5,48.7,29.85,East,85,2.0,7.0,90,0.01,,,0.38,VWS V14.01,2013-04-15 23:15:00,
2013-04-15 18:20:00,51.5,48.7,29.86,ESE,103,1.0,7.0,90,0.01,,,0.38,VWS V14.01,2013-04-15 23:20:00,
2013-04-15 18:25:00,51.5,49.0,29.86,East,94,0.0,7.0,91,0.01,,,0.38,VWS V14.01,2013-04-15 23:25:00,
2013-04-15 18:30:00,51.5,49.0,29.87,East,94,2.0,2.0,91,0.01,,,0.38,VWS V14.01,2013-04-15 23:30:00,
2013-04-15 18:35:00,51.5,49.0,29.88,East,94,0.0,2.0,91,0.01,,,0.38,VWS V14.01,2013-04-15 23:35:00,
2013-04-15 18:40:00,51.5,49.0,29.87,East,95,0.0,4.0,91,0.01,,,0.38,VWS V14.01,2013-04-15 23:40:00,
2013-04-15 18:45:00,51.5,49.0,29.87,East,95,0.0,4.0,91,0.01,,,0.38,VWS V14.01,2013-04-15 23:45:00,
2013-04-15 18:50:00,51.5,49.0,29.87,East,82,2.0,4.0,91,0.01,,,0.38,VWS V14.01,2013-04-15 23:50:00,
2013-04-15 18:55:00,51.4,48.9,29.87,East,82,2.0,4.0,91,0.01,,,0.38,VWS V14.01,2013-04-15 23:55:00,
2013-04-15 19:00:00,51.4,48.9,29.87,East,82,0.0,0.0,91,0.01,,,0.38,VWS V14.01,2013-04-16 00:00:00,
2013-04-15 19:05:00,51.4,48.9,29.87,East,82,0.0,2.0,91,0.01,,,0.38,VWS V14.01,2013-04-16 00:05:00,
2013-04-15 19:10:00,51.4,48.9,29.88,East,82,0.0,2.0,91,0.01,,,0.38,VWS V14.01,2013-04-16 00:10:00,
2013-04-15 19:15:00,51.4,48.9,29.88,East,82,1.0,3.0,91,0.01,,,0.38,VWS V14.01,2013-04-16 00:15:00,
2013-04-15 19:20:00,51.4,48.9,29.88,East,82,0.0,3.0,91,0.01,,,0.38,VWS V14.01,2013-04-16 00:20:00,
2013-04-15 19:25:00,51.4,48.9,29.88,East,82,0.0,3.0,91,0.01,,,0.38,VWS V14.01,2013-04-16 00:25:00,
2013-04-15 19:30:00,51.4,48.9,29.89,East,82,0.0,0.0,91,0.00,,,0.38,VWS V14.01,2013-04-16 00:30:00,
2013-04-15 19:35:00,51.4,48.9,29.89,East,82,0.0,2.0,91,0.00,,,0.38,VWS V14.01,2013-04-16 00:35:00,
2013-04-15 19:40:00,51.4,48.9,29.89,East,82,0.0,3.0,91,0.00,,,0.38,VWS V14.01,2013-04-16 00:40:00,
2013-04-15 19:45:00,51.4,48.9,29.89,East,82,0.0,3.0,91,0.00,,,0.38,VWS V14.01,2013-04-16 00:45:00,
2013-04-15 19:50:00,51.4,48.9,29.90,East,92,0.0,4.0,91,0.00,,,0.38,VWS V14.01,2013-04-16 00:50:00,
2013-04-15 19:55:00,51.4,48.9,29.90,East,93,0.0,4.0,91,0.01,,,0.39,VWS V14.01,2013-04-16 00:55:00,
2013-04-15 20:00:00,51.3,48.8,29.90,ENE,62,0.0,1.0,91,0.01,,,0.39,VWS V14.01,2013-04-16 01:00:00,
2013-04-15 20:05:00,51.3,48.8,29.91,ENE,61,0.0,3.0,91,0.01,,,0.39,VWS V14.01,2013-04-16 01:05:00,
2013-04-15 20:10:00,51.3,48.8,29.91,ENE,63,0.0,3.0,91,0.01,,,0.39,VWS V14.01,2013-04-16 01:10:00,
2013-04-15 20:15:00,51.2,48.7,29.92,ENE,63,0.0,3.0,91,0.01,,,0.39,VWS V14.01,2013-04-16 01:15:00,
2013-04-15 20:20:00,51.3,48.8,29.91,East,82,0.0,5.0,91,0.01,,,0.39,VWS V14.01,2013-04-16 01:20:00,
2013-04-15 20:25:00,51.2,48.7,29.92,NE,34,1.0,5.0,91,0.01,,,0.39,VWS V14.01,2013-04-16 01:25:00,
2013-04-15 20:30:00,51.2,48.7,29.92,ENE,67,3.0,3.0,91,0.01,,,0.39,VWS V14.01,2013-04-16 01:30:00,
2013-04-15 20:35:00,51.2,48.7,29.92,NE,34,3.0,7.0,91,0.01,,,0.39,VWS V14.01,2013-04-16 01:35:00,
2013-04-15 20:40:00,51.1,48.6,29.92,NE,49,2.0,7.0,91,0.01,,,0.39,VWS V14.01,2013-04-16 01:40:00,
2013-04-15 20:45:00,51.1,48.6,29.92,East,94,2.0,7.0,91,0.01,,,0.39,VWS V14.01,2013-04-16 01:45:00,
2013-04-15 20:50:00,51.1,48.6,29.93,ESE,117,4.0,7.0,91,0.01,,,0.39,VWS V14.01,2013-04-16 01:50:00,
2013-04-15 20:55:00,50.8,48.0,29.93,East,94,1.0,7.0,90,0.01,,,0.39,VWS V14.01,2013-04-16 01:55:00,
2013-04-15 21:00:00,50.3,47.2,29.93,East,89,2.0,3.0,89,0.00,,,0.39,VWS V14.01,2013-04-16 02:00:00,
2013-04-15 21:05:00,50.0,46.9,29.93,ENE,76,1.0,8.0,89,0.00,,,0.39,VWS V14.01,2013-04-16 02:05:00,
2013-04-15 21:10:00,49.9,46.5,29.94,ENE,59,2.0,8.0,88,0.00,,,0.39,VWS V14.01,2013-04-16 02:10:00,
2013-04-15 21:15:00,49.8,46.4,29.93,ENE,76,2.0,8.0,88,0.00,,,0.39,VWS V14.01,2013-04-16 02:15:00,
2013-04-15 21:20:00,49.7,46.0,29.94,East,96,2.0,8.0,87,0.00,,,0.39,VWS V14.01,2013-04-16 02:20:00,
2013-04-15 21:25:00,49.7,46.0,29.94,East,96,0.0,8.0,87,0.00,,,0.39,VWS V14.01,2013-04-16 02:25:00,
2013-04-15 21:30:00,49.7,46.0,29.94,East,92,0.0,2.0,87,0.00,,,0.39,VWS V14.01,2013-04-16 02:30:00,
2013-04-15 21:35:00,49.7,46.0,29.93,East,92,1.0,4.0,87,0.00,,,0.39,VWS V14.01,2013-04-16 02:35:00,
2013-04-15 21:41:00,49.7,46.0,29.93,East,88,0.0,5.0,87,0.00,,,0.39,VWS V14.01,2013-04-16 02:41:00,
2013-04-15 21:46:00,49.7,45.7,29.93,East,85,0.0,5.0,86,0.00,,,0.39,VWS V14.01,2013-04-16 02:46:00,
2013-04-15 21:51:00,49.8,45.8,29.93,East,86,0.0,5.0,86,0.00,,,0.39,VWS V14.01,2013-04-16 02:51:00,
2013-04-15 21:56:00,49.9,45.6,29.93,East,89,0.0,6.0,85,0.00,,,0.39,VWS V14.01,2013-04-16 02:56:00,
2013-04-15 22:01:00,49.9,45.6,29.93,ENE,70,1.0,4.0,85,0.00,,,0.39,VWS V14.01,2013-04-16 03:01:00,
2013-04-15 22:06:00,50.0,45.7,29.92,ENE,75,3.0,4.0,85,0.00,,,0.39,VWS V14.01,2013-04-16 03:06:00,
2013-04-15 22:11:00,50.0,45.4,29.93,ENE,60,1.0,12.0,84,0.00,,,0.39,VWS V14.01,2013-04-16 03:11:00,
2013-04-15 22:16:00,50.0,45.4,29.94,NNW,345,1.0,12.0,84,0.03,,,0.42,VWS V14.01,2013-04-16 03:16:00,
2013-04-15 22:21:00,50.0,45.4,29.98,West,279,0.0,12.0,84,0.04,,,0.43,VWS V14.01,2013-04-16 03:21:00,
2013-04-15 22:26:00,49.8,45.2,29.94,ESE,107,6.0,12.0,84,0.05,,,0.44,VWS V14.01,2013-04-16 03:26:00,
2013-04-15 22:31:00,49.5,44.9,29.94,East,90,4.0,5.0,84,0.05,,,0.44,VWS V14.01,2013-04-16 03:31:00,
2013-04-15 22:36:00,49.1,44.5,29.93,East,101,4.0,8.0,84,0.05,,,0.44,VWS V14.01,2013-04-16 03:36:00,
2013-04-15 22:41:00,48.8,43.9,29.92,ENE,76,2.0,8.0,83,0.05,,,0.44,VWS V14.01,2013-04-16 03:41:00,
2013-04-15 22:46:00,48.5,43.6,29.92,ESE,103,1.0,8.0,83,0.06,,,0.45,VWS V14.01,2013-04-16 03:46:00,
2013-04-15 22:51:00,48.2,43.3,29.94,NE,34,1.0,8.0,83,0.06,,,0.45,VWS V14.01,2013-04-16 03:51:00,
2013-04-15 22:56:00,47.9,43.3,29.92,NE,50,4.0,10.0,84,0.11,,,0.50,VWS V14.01,2013-04-16 03:56:00,
2013-04-15 23:00:00,47.6,43.3,29.93,NE,47,0.0,10.0,85,0.12,,,0.51,VWS V14.01,2013-04-16 04:00:00,
2013-04-15 23:06:00,47.3,43.0,29.93,ENE,74,3.0,7.0,85,0.13,,,0.52,VWS V14.01,2013-04-16 04:06:00,
2013-04-15 23:11:00,47.0,43.0,29.92,East,91,1.0,8.0,86,0.13,,,0.52,VWS V14.01,2013-04-16 04:11:00,
2013-04-15 23:16:00,46.8,42.8,29.92,ENE,78,2.0,13.0,86,0.13,,,0.52,VWS V14.01,2013-04-16 04:16:00,
2013-04-15 23:21:00,46.7,43.0,29.95,NNE,17,2.0,13.0,87,0.13,,,0.52,VWS V14.01,2013-04-16 04:21:00,
2013-04-15 23:26:00,46.6,42.9,29.97,ESE,108,1.0,13.0,87,0.13,,,0.52,VWS V14.01,2013-04-16 04:26:00,
2013-04-15 23:31:00,46.6,42.9,30.00,WNW,294,9.0,9.0,87,0.08,,,0.52,VWS V14.01,2013-04-16 04:31:00,
2013-04-15 23:36:00,46.6,42.9,29.96,ESE,118,6.0,9.0,87,0.10,,,0.54,VWS V14.01,2013-04-16 04:36:00,
2013-04-15 23:41:00,46.5,42.8,29.98,East,87,2.0,9.0,87,0.12,,,0.56,VWS V14.01,2013-04-16 04:41:00,
2013-04-15 23:46:00,46.5,42.8,29.96,East,81,2.0,9.0,87,0.13,,,0.57,VWS V14.01,2013-04-16 04:46:00,
2013-04-15 23:51:00,46.4,43.0,29.96,NNE,25,2.0,9.0,88,0.15,,,0.59,VWS V14.01,2013-04-16 04:51:00,
2013-04-15 23:56:00,46.3,43.0,29.97,East,80,1.0,9.0,88,0.16,,,0.60,VWS V14.01,2013-04-16 04:56:00,